sensor_id;sensor_type;location;lat;lon;timestamp;P1;durP1;ratioP1;P2;durP2;ratioP2
41436;SDS011;27178;49.460;10.850;2022-12-29T00:01:10;2.08;;;1.88;;
41436;SDS011;27178;49.460;10.850;2022-12-29T00:03:38;2.00;;;1.90;;
41436;SDS011;27178;49.460;10.850;2022-12-29T00:06:07;1.90;;;1.80;;
41436;SDS011;27178;49.460;10.850;2022-12-29T00:08:35;2.67;;;1.97;;
41436;SDS011;27178;49.460;10.850;2022-12-29T00:11:07;2.08;;;1.73;;
41436;SDS011;27178;49.460;10.850;2022-12-29T00:13:38;2.13;;;1.93;;
41436;SDS011;27178;49.460;10.850;2022-12-29T00:16:24;1.90;;;1.80;;
41436;SDS011;27178;49.460;10.850;2022-12-29T00:18:54;1.97;;;1.73;;
41436;SDS011;27178;49.460;10.850;2022-12-29T00:21:22;1.90;;;1.80;;
41436;SDS011;27178;49.460;10.850;2022-12-29T00:24:12;6.20;;;5.03;;
41436;SDS011;27178;49.460;10.850;2022-12-29T00:27:07;4.23;;;2.90;;
41436;SDS011;27178;49.460;10.850;2022-12-29T00:29:57;2.27;;;2.07;;
41436;SDS011;27178;49.460;10.850;2022-12-29T00:32:43;2.40;;;2.20;;
41436;SDS011;27178;49.460;10.850;2022-12-29T00:35:29;2.20;;;2.10;;
41436;SDS011;27178;49.460;10.850;2022-12-29T00:38:00;2.53;;;2.03;;
41436;SDS011;27178;49.460;10.850;2022-12-29T00:40:49;2.00;;;1.90;;
41436;SDS011;27178;49.460;10.850;2022-12-29T00:43:35;1.73;;;1.63;;
41436;SDS011;27178;49.460;10.850;2022-12-29T00:46:22;2.73;;;2.13;;
41436;SDS011;27178;49.460;10.850;2022-12-29T00:48:50;1.93;;;1.77;;
41436;SDS011;27178;49.460;10.850;2022-12-29T00:51:36;1.80;;;1.70;;
41436;SDS011;27178;49.460;10.850;2022-12-29T00:54:05;1.92;;;1.70;;
41436;SDS011;27178;49.460;10.850;2022-12-29T00:56:33;1.88;;;1.65;;
41436;SDS011;27178;49.460;10.850;2022-12-29T00:59:02;3.33;;;1.95;;
41436;SDS011;27178;49.460;10.850;2022-12-29T01:01:33;1.83;;;1.73;;
41436;SDS011;27178;49.460;10.850;2022-12-29T01:04:03;2.83;;;1.85;;
41436;SDS011;27178;49.460;10.850;2022-12-29T01:06:32;2.38;;;1.80;;
41436;SDS011;27178;49.460;10.850;2022-12-29T01:09:01;2.13;;;2.00;;
41436;SDS011;27178;49.460;10.850;2022-12-29T01:11:48;2.05;;;1.85;;
41436;SDS011;27178;49.460;10.850;2022-12-29T01:14:16;2.00;;;1.80;;
41436;SDS011;27178;49.460;10.850;2022-12-29T01:16:47;2.07;;;1.93;;
41436;SDS011;27178;49.460;10.850;2022-12-29T01:19:16;2.10;;;1.80;;
41436;SDS011;27178;49.460;10.850;2022-12-29T01:21:45;3.45;;;2.00;;
41436;SDS011;27178;49.460;10.850;2022-12-29T01:24:14;2.00;;;1.50;;
41436;SDS011;27178;49.460;10.850;2022-12-29T01:26:43;2.20;;;2.00;;
41436;SDS011;27178;49.460;10.850;2022-12-29T01:29:11;2.00;;;1.67;;
41436;SDS011;27178;49.460;10.850;2022-12-29T01:31:40;1.65;;;1.55;;
41436;SDS011;27178;49.460;10.850;2022-12-29T01:34:10;1.80;;;1.70;;
41436;SDS011;27178;49.460;10.850;2022-12-29T01:36:39;2.25;;;1.77;;
41436;SDS011;27178;49.460;10.850;2022-12-29T01:39:07;3.33;;;1.97;;
41436;SDS011;27178;49.460;10.850;2022-12-29T01:41:36;1.83;;;1.70;;
41436;SDS011;27178;49.460;10.850;2022-12-29T01:47:06;2.17;;;1.98;;
41436;SDS011;27178;49.460;10.850;2022-12-29T01:49:37;2.13;;;1.67;;
41436;SDS011;27178;49.460;10.850;2022-12-29T01:52:06;1.93;;;1.70;;
41436;SDS011;27178;49.460;10.850;2022-12-29T01:54:36;3.50;;;1.80;;
41436;SDS011;27178;49.460;10.850;2022-12-29T01:57:08;1.92;;;1.73;;
41436;SDS011;27178;49.460;10.850;2022-12-29T01:59:40;2.70;;;2.20;;
41436;SDS011;27178;49.460;10.850;2022-12-29T02:02:13;1.80;;;1.70;;
41436;SDS011;27178;49.460;10.850;2022-12-29T02:04:44;1.80;;;1.70;;
41436;SDS011;27178;49.460;10.850;2022-12-29T02:07:16;2.23;;;2.03;;
41436;SDS011;27178;49.460;10.850;2022-12-29T02:09:46;2.47;;;1.80;;
41436;SDS011;27178;49.460;10.850;2022-12-29T02:12:16;1.83;;;1.70;;
41436;SDS011;27178;49.460;10.850;2022-12-29T02:14:46;2.53;;;1.77;;
41436;SDS011;27178;49.460;10.850;2022-12-29T02:17:16;2.50;;;2.00;;
41436;SDS011;27178;49.460;10.850;2022-12-29T02:23:16;2.90;;;1.80;;
41436;SDS011;27178;49.460;10.850;2022-12-29T02:26:28;2.00;;;1.80;;
41436;SDS011;27178;49.460;10.850;2022-12-29T02:32:21;1.67;;;1.57;;
41436;SDS011;27178;49.460;10.850;2022-12-29T02:34:58;1.53;;;1.43;;
41436;SDS011;27178;49.460;10.850;2022-12-29T02:37:34;1.80;;;1.70;;
41436;SDS011;27178;49.460;10.850;2022-12-29T02:40:13;2.83;;;1.77;;
41436;SDS011;27178;49.460;10.850;2022-12-29T02:42:51;3.13;;;1.87;;
41436;SDS011;27178;49.460;10.850;2022-12-29T02:45:30;2.20;;;1.77;;
41436;SDS011;27178;49.460;10.850;2022-12-29T02:48:07;2.33;;;1.73;;
41436;SDS011;27178;49.460;10.850;2022-12-29T02:50:43;1.57;;;1.47;;
41436;SDS011;27178;49.460;10.850;2022-12-29T02:53:17;1.87;;;1.70;;
41436;SDS011;27178;49.460;10.850;2022-12-29T02:56:07;2.43;;;1.60;;
41436;SDS011;27178;49.460;10.850;2022-12-29T02:58:34;1.87;;;1.70;;
41436;SDS011;27178;49.460;10.850;2022-12-29T03:01:07;2.13;;;1.80;;
41436;SDS011;27178;49.460;10.850;2022-12-29T03:03:51;2.33;;;1.70;;
41436;SDS011;27178;49.460;10.850;2022-12-29T03:06:33;2.70;;;1.77;;
41436;SDS011;27178;49.460;10.850;2022-12-29T03:09:20;2.37;;;1.83;;
41436;SDS011;27178;49.460;10.850;2022-12-29T03:12:03;1.77;;;1.40;;
41436;SDS011;27178;49.460;10.850;2022-12-29T03:14:52;2.53;;;1.67;;
41436;SDS011;27178;49.460;10.850;2022-12-29T03:17:46;2.13;;;1.57;;
41436;SDS011;27178;49.460;10.850;2022-12-29T03:20:22;1.53;;;1.43;;
41436;SDS011;27178;49.460;10.850;2022-12-29T03:22:56;1.97;;;1.60;;
41436;SDS011;27178;49.460;10.850;2022-12-29T03:25:28;1.87;;;1.60;;
41436;SDS011;27178;49.460;10.850;2022-12-29T03:28:00;1.73;;;1.53;;
41436;SDS011;27178;49.460;10.850;2022-12-29T03:30:30;1.63;;;1.53;;
41436;SDS011;27178;49.460;10.850;2022-12-29T03:33:02;2.77;;;1.70;;
41436;SDS011;27178;49.460;10.850;2022-12-29T03:35:36;1.63;;;1.53;;
41436;SDS011;27178;49.460;10.850;2022-12-29T03:38:09;1.90;;;1.70;;
41436;SDS011;27178;49.460;10.850;2022-12-29T03:40:44;1.63;;;1.53;;
41436;SDS011;27178;49.460;10.850;2022-12-29T03:43:15;2.07;;;1.70;;
41436;SDS011;27178;49.460;10.850;2022-12-29T03:45:44;3.13;;;1.60;;
41436;SDS011;27178;49.460;10.850;2022-12-29T03:48:13;1.63;;;1.52;;
41436;SDS011;27178;49.460;10.850;2022-12-29T03:50:43;1.60;;;1.50;;
41436;SDS011;27178;49.460;10.850;2022-12-29T03:53:11;1.70;;;1.60;;
41436;SDS011;27178;49.460;10.850;2022-12-29T03:55:39;1.80;;;1.50;;
41436;SDS011;27178;49.460;10.850;2022-12-29T03:58:08;2.27;;;1.70;;
41436;SDS011;27178;49.460;10.850;2022-12-29T04:00:36;1.80;;;1.50;;
41436;SDS011;27178;49.460;10.850;2022-12-29T04:03:04;2.05;;;1.50;;
41436;SDS011;27178;49.460;10.850;2022-12-29T04:05:33;1.75;;;1.30;;
41436;SDS011;27178;49.460;10.850;2022-12-29T04:08:03;1.80;;;1.53;;
41436;SDS011;27178;49.460;10.850;2022-12-29T04:10:32;1.63;;;1.53;;
41436;SDS011;27178;49.460;10.850;2022-12-29T04:13:00;2.37;;;1.80;;
41436;SDS011;27178;49.460;10.850;2022-12-29T04:15:28;1.73;;;1.63;;
41436;SDS011;27178;49.460;10.850;2022-12-29T04:17:57;2.17;;;1.57;;
41436;SDS011;27178;49.460;10.850;2022-12-29T04:20:25;2.87;;;1.90;;
41436;SDS011;27178;49.460;10.850;2022-12-29T04:23:13;2.45;;;1.55;;
41436;SDS011;27178;49.460;10.850;2022-12-29T04:25:44;2.03;;;1.80;;
41436;SDS011;27178;49.460;10.850;2022-12-29T04:28:14;2.13;;;1.87;;
41436;SDS011;27178;49.460;10.850;2022-12-29T04:30:44;1.80;;;1.60;;
41436;SDS011;27178;49.460;10.850;2022-12-29T04:33:13;2.23;;;1.80;;
41436;SDS011;27178;49.460;10.850;2022-12-29T04:35:44;1.87;;;1.77;;
41436;SDS011;27178;49.460;10.850;2022-12-29T04:38:14;2.30;;;2.00;;
41436;SDS011;27178;49.460;10.850;2022-12-29T04:40:43;1.90;;;1.70;;
41436;SDS011;27178;49.460;10.850;2022-12-29T04:43:12;2.83;;;1.70;;
41436;SDS011;27178;49.460;10.850;2022-12-29T04:45:43;1.77;;;1.67;;
41436;SDS011;27178;49.460;10.850;2022-12-29T04:48:12;1.77;;;1.67;;
41436;SDS011;27178;49.460;10.850;2022-12-29T04:50:41;2.50;;;1.70;;
41436;SDS011;27178;49.460;10.850;2022-12-29T04:53:10;1.80;;;1.60;;
41436;SDS011;27178;49.460;10.850;2022-12-29T04:55:40;2.07;;;1.87;;
41436;SDS011;27178;49.460;10.850;2022-12-29T04:58:08;1.67;;;1.57;;
41436;SDS011;27178;49.460;10.850;2022-12-29T05:00:44;2.60;;;2.00;;
41436;SDS011;27178;49.460;10.850;2022-12-29T05:03:12;2.40;;;1.60;;
41436;SDS011;27178;49.460;10.850;2022-12-29T05:05:41;1.90;;;1.80;;
41436;SDS011;27178;49.460;10.850;2022-12-29T05:08:09;1.57;;;1.47;;
41436;SDS011;27178;49.460;10.850;2022-12-29T05:10:40;3.00;;;1.67;;
41436;SDS011;27178;49.460;10.850;2022-12-29T05:13:12;2.73;;;1.67;;
41436;SDS011;27178;49.460;10.850;2022-12-29T05:15:40;1.80;;;1.70;;
41436;SDS011;27178;49.460;10.850;2022-12-29T05:18:13;2.73;;;1.60;;
41436;SDS011;27178;49.460;10.850;2022-12-29T05:20:42;2.73;;;1.73;;
41436;SDS011;27178;49.460;10.850;2022-12-29T05:23:10;1.97;;;1.70;;
41436;SDS011;27178;49.460;10.850;2022-12-29T05:25:40;1.60;;;1.50;;
41436;SDS011;27178;49.460;10.850;2022-12-29T05:28:08;2.03;;;1.60;;
41436;SDS011;27178;49.460;10.850;2022-12-29T05:30:36;1.98;;;1.77;;
41436;SDS011;27178;49.460;10.850;2022-12-29T05:33:04;2.07;;;1.43;;
41436;SDS011;27178;49.460;10.850;2022-12-29T05:35:33;1.90;;;1.80;;
41436;SDS011;27178;49.460;10.850;2022-12-29T05:38:02;1.60;;;1.50;;
41436;SDS011;27178;49.460;10.850;2022-12-29T05:40:30;2.40;;;1.87;;
41436;SDS011;27178;49.460;10.850;2022-12-29T05:43:00;1.70;;;1.60;;
41436;SDS011;27178;49.460;10.850;2022-12-29T05:45:28;2.00;;;1.80;;
41436;SDS011;27178;49.460;10.850;2022-12-29T05:47:57;1.73;;;1.60;;
41436;SDS011;27178;49.460;10.850;2022-12-29T05:50:25;2.10;;;1.77;;
41436;SDS011;27178;49.460;10.850;2022-12-29T05:52:53;1.80;;;1.60;;
41436;SDS011;27178;49.460;10.850;2022-12-29T05:55:21;1.70;;;1.60;;
41436;SDS011;27178;49.460;10.850;2022-12-29T05:57:50;1.57;;;1.47;;
41436;SDS011;27178;49.460;10.850;2022-12-29T06:00:19;2.83;;;1.67;;
41436;SDS011;27178;49.460;10.850;2022-12-29T06:02:48;1.70;;;1.57;;
41436;SDS011;27178;49.460;10.850;2022-12-29T06:05:17;2.60;;;1.50;;
41436;SDS011;27178;49.460;10.850;2022-12-29T06:07:45;1.53;;;1.43;;
41436;SDS011;27178;49.460;10.850;2022-12-29T06:10:13;1.60;;;1.50;;
41436;SDS011;27178;49.460;10.850;2022-12-29T06:12:42;2.80;;;1.40;;
41436;SDS011;27178;49.460;10.850;2022-12-29T06:15:10;1.40;;;1.30;;
41436;SDS011;27178;49.460;10.850;2022-12-29T06:17:40;1.40;;;1.30;;
41436;SDS011;27178;49.460;10.850;2022-12-29T06:20:09;2.53;;;1.87;;
41436;SDS011;27178;49.460;10.850;2022-12-29T06:22:38;1.90;;;1.60;;
41436;SDS011;27178;49.460;10.850;2022-12-29T06:25:06;1.63;;;1.53;;
41436;SDS011;27178;49.460;10.850;2022-12-29T06:27:35;2.63;;;1.70;;
41436;SDS011;27178;49.460;10.850;2022-12-29T06:30:04;1.60;;;1.47;;
41436;SDS011;27178;49.460;10.850;2022-12-29T06:32:33;2.17;;;2.00;;
41436;SDS011;27178;49.460;10.850;2022-12-29T06:35:03;1.73;;;1.57;;
41436;SDS011;27178;49.460;10.850;2022-12-29T06:37:32;1.80;;;1.60;;
41436;SDS011;27178;49.460;10.850;2022-12-29T06:40:00;2.07;;;1.90;;
41436;SDS011;27178;49.460;10.850;2022-12-29T06:42:29;1.57;;;1.47;;
41436;SDS011;27178;49.460;10.850;2022-12-29T06:44:57;1.57;;;1.47;;
41436;SDS011;27178;49.460;10.850;2022-12-29T06:47:27;2.07;;;1.80;;
41436;SDS011;27178;49.460;10.850;2022-12-29T06:49:55;2.73;;;2.50;;
41436;SDS011;27178;49.460;10.850;2022-12-29T06:52:24;2.37;;;2.17;;
41436;SDS011;27178;49.460;10.850;2022-12-29T06:54:53;2.20;;;2.00;;
41436;SDS011;27178;49.460;10.850;2022-12-29T06:57:21;2.53;;;1.90;;
41436;SDS011;27178;49.460;10.850;2022-12-29T06:59:50;3.27;;;1.80;;
41436;SDS011;27178;49.460;10.850;2022-12-29T07:02:18;2.95;;;1.45;;
41436;SDS011;27178;49.460;10.850;2022-12-29T07:04:47;2.87;;;1.87;;
41436;SDS011;27178;49.460;10.850;2022-12-29T07:07:15;2.50;;;1.63;;
41436;SDS011;27178;49.460;10.850;2022-12-29T07:09:45;1.50;;;1.40;;
41436;SDS011;27178;49.460;10.850;2022-12-29T07:12:13;1.73;;;1.63;;
41436;SDS011;27178;49.460;10.850;2022-12-29T07:14:42;2.40;;;1.30;;
41436;SDS011;27178;49.460;10.850;2022-12-29T07:17:10;2.90;;;1.90;;
41436;SDS011;27178;49.460;10.850;2022-12-29T07:19:39;3.00;;;2.80;;
41436;SDS011;27178;49.460;10.850;2022-12-29T07:22:07;2.87;;;2.43;;
41436;SDS011;27178;49.460;10.850;2022-12-29T07:24:36;4.37;;;1.93;;
41436;SDS011;27178;49.460;10.850;2022-12-29T07:27:06;2.45;;;1.88;;
41436;SDS011;27178;49.460;10.850;2022-12-29T07:29:36;1.80;;;1.60;;
41436;SDS011;27178;49.460;10.850;2022-12-29T07:32:04;2.50;;;1.67;;
41436;SDS011;27178;49.460;10.850;2022-12-29T07:34:33;1.80;;;1.70;;
41436;SDS011;27178;49.460;10.850;2022-12-29T07:37:01;1.47;;;1.37;;
41436;SDS011;27178;49.460;10.850;2022-12-29T07:39:30;1.45;;;1.35;;
41436;SDS011;27178;49.460;10.850;2022-12-29T07:41:58;1.83;;;1.60;;
41436;SDS011;27178;49.460;10.850;2022-12-29T07:44:31;1.57;;;1.47;;
41436;SDS011;27178;49.460;10.850;2022-12-29T07:47:00;1.83;;;1.50;;
41436;SDS011;27178;49.460;10.850;2022-12-29T07:49:28;1.53;;;1.43;;
41436;SDS011;27178;49.460;10.850;2022-12-29T07:51:56;2.53;;;1.60;;
41436;SDS011;27178;49.460;10.850;2022-12-29T07:54:25;3.97;;;1.73;;
41436;SDS011;27178;49.460;10.850;2022-12-29T07:56:53;2.92;;;2.03;;
41436;SDS011;27178;49.460;10.850;2022-12-29T07:59:22;2.13;;;1.80;;
41436;SDS011;27178;49.460;10.850;2022-12-29T08:01:52;3.57;;;1.60;;
41436;SDS011;27178;49.460;10.850;2022-12-29T08:04:21;1.40;;;1.30;;
41436;SDS011;27178;49.460;10.850;2022-12-29T08:06:49;2.30;;;1.40;;
41436;SDS011;27178;49.460;10.850;2022-12-29T08:09:17;1.70;;;1.60;;
41436;SDS011;27178;49.460;10.850;2022-12-29T08:11:49;1.70;;;1.50;;
41436;SDS011;27178;49.460;10.850;2022-12-29T08:14:18;3.57;;;2.27;;
41436;SDS011;27178;49.460;10.850;2022-12-29T08:16:46;1.57;;;1.47;;
41436;SDS011;27178;49.460;10.850;2022-12-29T08:19:16;1.40;;;1.30;;
41436;SDS011;27178;49.460;10.850;2022-12-29T08:21:45;2.88;;;1.55;;
41436;SDS011;27178;49.460;10.850;2022-12-29T08:24:13;2.63;;;1.60;;
41436;SDS011;27178;49.460;10.850;2022-12-29T08:26:41;1.70;;;1.60;;
41436;SDS011;27178;49.460;10.850;2022-12-29T08:29:10;1.90;;;1.70;;
41436;SDS011;27178;49.460;10.850;2022-12-29T08:31:38;1.83;;;1.50;;
41436;SDS011;27178;49.460;10.850;2022-12-29T08:34:07;2.80;;;1.70;;
41436;SDS011;27178;49.460;10.850;2022-12-29T08:36:36;1.77;;;1.67;;
41436;SDS011;27178;49.460;10.850;2022-12-29T08:39:05;1.73;;;1.60;;
41436;SDS011;27178;49.460;10.850;2022-12-29T08:41:33;2.33;;;1.83;;
41436;SDS011;27178;49.460;10.850;2022-12-29T08:44:01;2.03;;;1.80;;
41436;SDS011;27178;49.460;10.850;2022-12-29T08:46:30;1.90;;;1.60;;
41436;SDS011;27178;49.460;10.850;2022-12-29T08:48:58;1.88;;;1.77;;
41436;SDS011;27178;49.460;10.850;2022-12-29T08:51:27;3.43;;;2.60;;
41436;SDS011;27178;49.460;10.850;2022-12-29T08:53:56;3.33;;;2.87;;
41436;SDS011;27178;49.460;10.850;2022-12-29T08:56:25;3.20;;;2.33;;
41436;SDS011;27178;49.460;10.850;2022-12-29T08:58:53;4.65;;;2.67;;
41436;SDS011;27178;49.460;10.850;2022-12-29T09:01:21;3.97;;;2.38;;
41436;SDS011;27178;49.460;10.850;2022-12-29T09:03:50;2.63;;;2.10;;
41436;SDS011;27178;49.460;10.850;2022-12-29T09:06:38;2.10;;;1.90;;
41436;SDS011;27178;49.460;10.850;2022-12-29T09:09:08;1.70;;;1.57;;
41436;SDS011;27178;49.460;10.850;2022-12-29T09:11:36;1.60;;;1.50;;
41436;SDS011;27178;49.460;10.850;2022-12-29T09:14:05;2.30;;;1.97;;
41436;SDS011;27178;49.460;10.850;2022-12-29T09:16:33;2.77;;;1.80;;
41436;SDS011;27178;49.460;10.850;2022-12-29T09:19:02;2.03;;;1.80;;
41436;SDS011;27178;49.460;10.850;2022-12-29T09:21:31;2.63;;;1.60;;
41436;SDS011;27178;49.460;10.850;2022-12-29T09:23:59;1.67;;;1.57;;
41436;SDS011;27178;49.460;10.850;2022-12-29T09:26:29;1.60;;;1.50;;
41436;SDS011;27178;49.460;10.850;2022-12-29T09:28:57;1.55;;;1.40;;
41436;SDS011;27178;49.460;10.850;2022-12-29T09:31:25;2.28;;;1.55;;
41436;SDS011;27178;49.460;10.850;2022-12-29T09:33:54;2.60;;;1.67;;
41436;SDS011;27178;49.460;10.850;2022-12-29T09:36:23;1.65;;;1.55;;
41436;SDS011;27178;49.460;10.850;2022-12-29T09:38:52;2.15;;;1.70;;
41436;SDS011;27178;49.460;10.850;2022-12-29T09:41:23;2.35;;;1.60;;
41436;SDS011;27178;49.460;10.850;2022-12-29T09:44:02;2.40;;;1.80;;
41436;SDS011;27178;49.460;10.850;2022-12-29T09:46:35;3.53;;;1.73;;
41436;SDS011;27178;49.460;10.850;2022-12-29T09:49:09;2.20;;;1.60;;
41436;SDS011;27178;49.460;10.850;2022-12-29T09:51:46;3.28;;;2.28;;
41436;SDS011;27178;49.460;10.850;2022-12-29T09:54:23;1.80;;;1.70;;
41436;SDS011;27178;49.460;10.850;2022-12-29T09:57:00;3.43;;;1.83;;
41436;SDS011;27178;49.460;10.850;2022-12-29T09:59:35;2.38;;;1.92;;
41436;SDS011;27178;49.460;10.850;2022-12-29T10:02:12;2.13;;;1.80;;
41436;SDS011;27178;49.460;10.850;2022-12-29T10:04:50;2.03;;;1.85;;
41436;SDS011;27178;49.460;10.850;2022-12-29T10:07:23;2.28;;;1.65;;
41436;SDS011;27178;49.460;10.850;2022-12-29T10:10:00;1.70;;;1.60;;
41436;SDS011;27178;49.460;10.850;2022-12-29T10:12:41;2.90;;;1.45;;
41436;SDS011;27178;49.460;10.850;2022-12-29T10:15:26;5.07;;;2.40;;
41436;SDS011;27178;49.460;10.850;2022-12-29T10:18:04;2.80;;;2.50;;
41436;SDS011;27178;49.460;10.850;2022-12-29T10:20:48;2.40;;;2.20;;
41436;SDS011;27178;49.460;10.850;2022-12-29T10:23:25;2.75;;;2.08;;
41436;SDS011;27178;49.460;10.850;2022-12-29T10:25:56;2.60;;;2.20;;
41436;SDS011;27178;49.460;10.850;2022-12-29T10:28:31;1.90;;;1.80;;
41436;SDS011;27178;49.460;10.850;2022-12-29T10:31:04;3.30;;;1.80;;
41436;SDS011;27178;49.460;10.850;2022-12-29T10:33:39;3.92;;;2.00;;
41436;SDS011;27178;49.460;10.850;2022-12-29T10:36:12;1.70;;;1.53;;
41436;SDS011;27178;49.460;10.850;2022-12-29T10:38:45;2.63;;;2.00;;
41436;SDS011;27178;49.460;10.850;2022-12-29T10:41:23;2.00;;;1.80;;
41436;SDS011;27178;49.460;10.850;2022-12-29T10:43:56;2.53;;;2.08;;
41436;SDS011;27178;49.460;10.850;2022-12-29T10:46:29;5.72;;;2.00;;
41436;SDS011;27178;49.460;10.850;2022-12-29T10:49:01;3.83;;;1.70;;
41436;SDS011;27178;49.460;10.850;2022-12-29T10:51:32;2.25;;;1.90;;
41436;SDS011;27178;49.460;10.850;2022-12-29T10:54:05;2.17;;;1.98;;
41436;SDS011;27178;49.460;10.850;2022-12-29T10:56:39;4.20;;;2.00;;
41436;SDS011;27178;49.460;10.850;2022-12-29T10:59:13;2.22;;;1.80;;
41436;SDS011;27178;49.460;10.850;2022-12-29T11:01:50;3.13;;;1.70;;
41436;SDS011;27178;49.460;10.850;2022-12-29T11:04:28;2.40;;;1.73;;
41436;SDS011;27178;49.460;10.850;2022-12-29T11:07:03;1.90;;;1.73;;
41436;SDS011;27178;49.460;10.850;2022-12-29T11:09:40;2.00;;;1.80;;
41436;SDS011;27178;49.460;10.850;2022-12-29T11:12:20;1.80;;;1.70;;
41436;SDS011;27178;49.460;10.850;2022-12-29T11:15:01;2.38;;;2.03;;
41436;SDS011;27178;49.460;10.850;2022-12-29T11:17:44;2.83;;;2.20;;
41436;SDS011;27178;49.460;10.850;2022-12-29T11:20:30;5.60;;;2.10;;
41436;SDS011;27178;49.460;10.850;2022-12-29T11:23:02;3.35;;;2.10;;
41436;SDS011;27178;49.460;10.850;2022-12-29T11:25:32;2.20;;;2.00;;
41436;SDS011;27178;49.460;10.850;2022-12-29T11:28:00;2.88;;;2.08;;
41436;SDS011;27178;49.460;10.850;2022-12-29T11:30:31;2.50;;;2.25;;
41436;SDS011;27178;49.460;10.850;2022-12-29T11:33:02;3.22;;;1.95;;
41436;SDS011;27178;49.460;10.850;2022-12-29T11:35:34;5.55;;;1.90;;
41436;SDS011;27178;49.460;10.850;2022-12-29T11:38:03;1.95;;;1.70;;
41436;SDS011;27178;49.460;10.850;2022-12-29T11:40:33;2.00;;;1.80;;
41436;SDS011;27178;49.460;10.850;2022-12-29T11:43:06;2.30;;;2.10;;
41436;SDS011;27178;49.460;10.850;2022-12-29T11:45:45;2.92;;;2.40;;
41436;SDS011;27178;49.460;10.850;2022-12-29T11:48:16;5.47;;;2.10;;
41436;SDS011;27178;49.460;10.850;2022-12-29T11:50:49;2.38;;;2.08;;
41436;SDS011;27178;49.460;10.850;2022-12-29T11:53:20;2.33;;;1.63;;
41436;SDS011;27178;49.460;10.850;2022-12-29T11:55:52;3.75;;;2.03;;
41436;SDS011;27178;49.460;10.850;2022-12-29T11:58:27;2.13;;;1.75;;
41436;SDS011;27178;49.460;10.850;2022-12-29T12:00:59;2.80;;;1.77;;
41436;SDS011;27178;49.460;10.850;2022-12-29T12:03:31;3.42;;;2.15;;
41436;SDS011;27178;49.460;10.850;2022-12-29T12:06:04;3.03;;;1.92;;
41436;SDS011;27178;49.460;10.850;2022-12-29T12:08:38;2.00;;;1.75;;
41436;SDS011;27178;49.460;10.850;2022-12-29T12:11:12;2.13;;;1.85;;
41436;SDS011;27178;49.460;10.850;2022-12-29T12:13:44;2.85;;;2.05;;
41436;SDS011;27178;49.460;10.850;2022-12-29T12:16:22;2.20;;;2.00;;
41436;SDS011;27178;49.460;10.850;2022-12-29T12:18:58;2.35;;;2.03;;
41436;SDS011;27178;49.460;10.850;2022-12-29T12:21:36;3.58;;;2.80;;
41436;SDS011;27178;49.460;10.850;2022-12-29T12:24:15;5.13;;;2.08;;
41436;SDS011;27178;49.460;10.850;2022-12-29T12:27:00;2.30;;;2.10;;
41436;SDS011;27178;49.460;10.850;2022-12-29T12:29:36;3.17;;;1.80;;
41436;SDS011;27178;49.460;10.850;2022-12-29T12:32:12;4.20;;;1.80;;
41436;SDS011;27178;49.460;10.850;2022-12-29T12:34:45;2.85;;;1.80;;
41436;SDS011;27178;49.460;10.850;2022-12-29T12:37:22;1.80;;;1.70;;
41436;SDS011;27178;49.460;10.850;2022-12-29T12:40:23;1.60;;;1.50;;
41436;SDS011;27178;49.460;10.850;2022-12-29T12:43:10;2.45;;;1.77;;
41436;SDS011;27178;49.460;10.850;2022-12-29T12:45:59;2.50;;;1.83;;
41436;SDS011;27178;49.460;10.850;2022-12-29T12:48:54;1.75;;;1.65;;
41436;SDS011;27178;49.460;10.850;2022-12-29T12:51:38;1.98;;;1.50;;
41436;SDS011;27178;49.460;10.850;2022-12-29T12:54:23;2.25;;;1.70;;
41436;SDS011;27178;49.460;10.850;2022-12-29T12:57:02;2.03;;;1.83;;
41436;SDS011;27178;49.460;10.850;2022-12-29T12:59:43;2.08;;;1.67;;
41436;SDS011;27178;49.460;10.850;2022-12-29T13:02:26;4.10;;;2.20;;
41436;SDS011;27178;49.460;10.850;2022-12-29T13:05:07;3.65;;;1.75;;
41436;SDS011;27178;49.460;10.850;2022-12-29T13:07:57;2.47;;;1.52;;
41436;SDS011;27178;49.460;10.850;2022-12-29T13:10:38;2.20;;;2.00;;
41436;SDS011;27178;49.460;10.850;2022-12-29T13:13:34;1.80;;;1.70;;
41436;SDS011;27178;49.460;10.850;2022-12-29T13:16:19;3.50;;;1.70;;
41436;SDS011;27178;49.460;10.850;2022-12-29T13:18:55;2.65;;;1.77;;
41436;SDS011;27178;49.460;10.850;2022-12-29T13:21:31;3.92;;;2.13;;
41436;SDS011;27178;49.460;10.850;2022-12-29T13:24:19;3.10;;;2.80;;
41436;SDS011;27178;49.460;10.850;2022-12-29T13:26:54;2.50;;;2.30;;
41436;SDS011;27178;49.460;10.850;2022-12-29T13:29:30;2.50;;;2.00;;
41436;SDS011;27178;49.460;10.850;2022-12-29T13:32:07;4.70;;;2.03;;
41436;SDS011;27178;49.460;10.850;2022-12-29T13:34:53;2.25;;;2.05;;
41436;SDS011;27178;49.460;10.850;2022-12-29T13:37:31;4.93;;;3.53;;
41436;SDS011;27178;49.460;10.850;2022-12-29T13:40:10;6.47;;;3.22;;
41436;SDS011;27178;49.460;10.850;2022-12-29T13:42:42;3.25;;;2.95;;
41436;SDS011;27178;49.460;10.850;2022-12-29T13:45:12;3.30;;;2.78;;
41436;SDS011;27178;49.460;10.850;2022-12-29T13:47:44;2.70;;;2.50;;
41436;SDS011;27178;49.460;10.850;2022-12-29T13:50:16;7.97;;;2.92;;
41436;SDS011;27178;49.460;10.850;2022-12-29T13:52:48;3.65;;;2.70;;
41436;SDS011;27178;49.460;10.850;2022-12-29T13:55:26;2.20;;;2.10;;
41436;SDS011;27178;49.460;10.850;2022-12-29T13:58:02;3.47;;;2.75;;
41436;SDS011;27178;49.460;10.850;2022-12-29T14:00:40;3.35;;;3.05;;
41436;SDS011;27178;49.460;10.850;2022-12-29T14:03:28;5.90;;;3.70;;
41436;SDS011;27178;49.460;10.850;2022-12-29T14:06:24;2.85;;;2.50;;
41436;SDS011;27178;49.460;10.850;2022-12-29T14:08:54;4.45;;;2.97;;
41436;SDS011;27178;49.460;10.850;2022-12-29T14:11:31;3.25;;;3.00;;
41436;SDS011;27178;49.460;10.850;2022-12-29T14:14:09;3.40;;;3.08;;
41436;SDS011;27178;49.460;10.850;2022-12-29T14:16:40;5.32;;;3.40;;
41436;SDS011;27178;49.460;10.850;2022-12-29T14:19:11;3.55;;;3.00;;
41436;SDS011;27178;49.460;10.850;2022-12-29T14:21:49;3.33;;;2.92;;
41436;SDS011;27178;49.460;10.850;2022-12-29T14:33:19;3.17;;;2.17;;
41436;SDS011;27178;49.460;10.850;2022-12-29T14:35:53;3.42;;;2.13;;
41436;SDS011;27178;49.460;10.850;2022-12-29T14:38:29;2.80;;;2.15;;
41436;SDS011;27178;49.460;10.850;2022-12-29T14:43:59;1.90;;;1.80;;
41436;SDS011;27178;49.460;10.850;2022-12-29T14:46:45;3.25;;;2.53;;
41436;SDS011;27178;49.460;10.850;2022-12-29T14:49:17;3.03;;;2.35;;
41436;SDS011;27178;49.460;10.850;2022-12-29T14:51:48;2.97;;;2.47;;
41436;SDS011;27178;49.460;10.850;2022-12-29T15:00:04;3.22;;;2.08;;
41436;SDS011;27178;49.460;10.850;2022-12-29T15:02:46;3.50;;;1.95;;
41436;SDS011;27178;49.460;10.850;2022-12-29T15:08:12;2.58;;;2.20;;
41436;SDS011;27178;49.460;10.850;2022-12-29T15:10:47;3.13;;;2.00;;
41436;SDS011;27178;49.460;10.850;2022-12-29T15:13:24;2.40;;;1.95;;
41436;SDS011;27178;49.460;10.850;2022-12-29T15:16:02;2.10;;;1.90;;
41436;SDS011;27178;49.460;10.850;2022-12-29T15:18:31;2.15;;;1.85;;
41436;SDS011;27178;49.460;10.850;2022-12-29T15:21:01;4.13;;;1.92;;
41436;SDS011;27178;49.460;10.850;2022-12-29T15:23:31;2.20;;;1.85;;
41436;SDS011;27178;49.460;10.850;2022-12-29T15:26:02;2.70;;;2.38;;
41436;SDS011;27178;49.460;10.850;2022-12-29T15:28:36;2.65;;;2.38;;
41436;SDS011;27178;49.460;10.850;2022-12-29T15:31:10;1.90;;;1.60;;
41436;SDS011;27178;49.460;10.850;2022-12-29T15:33:41;2.58;;;2.38;;
41436;SDS011;27178;49.460;10.850;2022-12-29T15:36:17;2.03;;;1.83;;
41436;SDS011;27178;49.460;10.850;2022-12-29T15:38:48;2.08;;;1.88;;